Time;durP1;ratioP1;P1;durP2;ratioP2;P2;SDS_P1;SDS_P2;PMS_P1;PMS_P2;Temp;Humidity;BMP_temperature;BMP_pressure;BME280_temperature;BME280_humidity;BME280_pressure;Samples;Min_cycle;Max_cycle;Signal;HPM_P1;HPM_P2
2021/12/19 00:02:15;;;;;;;15.30;3.20;;;;;;;8.45;74.29;102454.63;5046124;28;20249;-68
2021/12/19 00:08:27;;;;;;;5.07;3.38;;;;;;;8.59;73.64;102452.66;5026463;28;20037;-68
2021/12/19 00:10:14;;;;;;;4.10;2.80;;;;;;;8.74;73.65;102444.56;5046408;28;20055;-67
2021/12/19 00:12:40;;;;;;;10.70;3.03;;;;;;;8.81;72.95;102442.69;5045989;28;20053;-68
2021/12/19 00:15:07;;;;;;;6.47;3.10;;;;;;;8.63;73.55;102443.00;5047120;28;20041;-68
2021/12/19 00:17:34;;;;;;;10.63;3.65;;;;;;;8.51;73.42;102443.19;5043011;28;20071;-68
2021/12/19 00:20:01;;;;;;;6.50;3.05;;;;;;;8.50;73.24;102441.50;5047404;28;20072;-68
2021/12/19 00:22:28;;;;;;;7.70;3.63;;;;;;;8.60;73.61;102441.31;5048607;28;20048;-68
2021/12/19 00:24:54;;;;;;;8.02;2.95;;;;;;;8.79;72.90;102429.63;5046845;28;20053;-68
2021/12/19 00:27:20;;;;;;;5.15;3.22;;;;;;;8.91;72.35;102423.31;5048158;28;20068;-68
2021/12/19 00:29:47;;;;;;;7.45;3.65;;;;;;;8.63;73.30;102416.84;5045114;28;20056;-68
2021/12/19 00:32:13;;;;;;;8.48;3.28;;;;;;;8.72;73.02;102417.56;5047520;28;20098;-68
2021/12/19 00:34:39;;;;;;;7.75;3.75;;;;;;;8.64;73.67;102416.84;5047879;28;20148;-68
2021/12/19 00:37:07;;;;;;;7.63;3.33;;;;;;;8.89;72.92;102398.97;5046943;28;20460;-68
2021/12/19 00:39:33;;;;;;;8.38;3.70;;;;;;;8.75;73.89;102420.13;5048020;28;20052;-68
2021/12/19 00:42:04;;;;;;;15.15;4.22;;;;;;;8.36;75.39;102423.38;5048092;28;20508;-68
2021/12/19 00:44:32;;;;;;;5.13;3.15;;;;;;;8.61;74.60;102416.88;5048287;28;20049;-69
2021/12/19 00:47:05;;;;;;;8.52;3.42;;;;;;;8.45;75.04;102412.81;5047227;28;20504;-69
2021/12/19 00:49:32;;;;;;;17.05;4.45;;;;;;;8.46;75.20;102393.59;5046803;28;22378;-69
2021/12/19 00:51:58;;;;;;;12.98;3.92;;;;;;;8.48;74.98;102390.97;5048135;28;20049;-69
2021/12/19 00:54:26;;;;;;;11.68;4.68;;;;;;;8.46;75.78;102396.22;5048352;28;20049;-69
2021/12/19 00:56:52;;;;;;;10.05;4.60;;;;;;;8.56;75.30;102381.25;5040872;28;20044;-68
2021/12/19 00:59:19;;;;;;;16.73;5.00;;;;;;;8.66;75.17;102386.28;5042008;28;20091;-68
2021/12/19 01:01:46;;;;;;;11.57;4.88;;;;;;;8.92;74.10;102384.94;5048069;28;20103;-68
2021/12/19 01:04:18;;;;;;;11.60;5.05;;;;;;;8.98;73.53;102374.38;5048229;28;20069;-68
2021/12/19 01:06:45;;;;;;;11.23;4.68;;;;;;;8.99;73.26;102373.47;5048419;28;20061;-67
2021/12/19 01:09:12;;;;;;;9.88;4.75;;;;;;;9.09;72.92;102369.81;5050544;28;20067;-67
2021/12/19 01:11:40;;;;;;;7.28;5.50;;;;;;;8.64;74.31;102367.16;5052767;28;20465;-67
2021/12/19 01:14:08;;;;;;;10.60;4.97;;;;;;;8.69;73.92;102360.06;5055158;28;20049;-67
2021/12/19 01:16:34;;;;;;;11.95;5.13;;;;;;;8.73;74.07;102364.38;5050360;28;20145;-67
2021/12/19 01:19:01;;;;;;;10.45;5.55;;;;;;;8.57;74.95;102357.66;5050848;28;20091;-67
2021/12/19 01:21:27;;;;;;;14.60;6.85;;;;;;;8.42;75.35;102360.59;5050295;28;20049;-67
2021/12/19 01:23:53;;;;;;;13.55;6.75;;;;;;;8.69;74.43;102369.66;5051737;28;20063;-67
2021/12/19 01:26:20;;;;;;;12.68;6.10;;;;;;;8.68;74.64;102376.66;5040303;28;20494;-67
2021/12/19 01:28:47;;;;;;;15.63;7.05;;;;;;;8.62;74.22;102374.16;5046705;28;20049;-67
2021/12/19 01:31:14;;;;;;;11.68;6.82;;;;;;;8.46;74.60;102371.84;5048562;28;20049;-67
2021/12/19 01:33:40;;;;;;;18.70;6.32;;;;;;;8.48;74.53;102365.69;5032613;28;20049;-67
2021/12/19 01:36:07;;;;;;;11.48;5.53;;;;;;;8.43;74.89;102357.06;5051454;28;20095;-67
2021/12/19 01:38:33;;;;;;;7.20;5.40;;;;;;;8.58;74.84;102356.78;5050522;28;20456;-68
2021/12/19 01:41:00;;;;;;;12.38;6.10;;;;;;;8.24;75.50;102350.41;5047400;28;20464;-68
2021/12/19 01:43:28;;;;;;;11.52;7.30;;;;;;;8.77;73.73;102352.97;5039630;28;20041;-68
2021/12/19 01:45:56;;;;;;;17.23;7.00;;;;;;;8.57;73.87;102355.06;5051861;28;20049;-68
2021/12/19 01:48:23;;;;;;;12.63;6.13;;;;;;;8.64;74.11;102348.00;5051425;28;20409;-68
2021/12/19 01:50:51;;;;;;;9.23;7.18;;;;;;;8.86;73.37;102343.22;5051466;28;20126;-68
2021/12/19 01:53:18;;;;;;;9.13;6.70;;;;;;;8.70;73.50;102334.78;5038038;28;20513;-68
2021/12/19 01:55:46;;;;;;;11.65;5.82;;;;;;;8.40;74.62;102332.72;5031917;28;20053;-68
2021/12/19 01:58:14;;;;;;;8.80;5.70;;;;;;;8.55;73.94;102325.47;5031114;28;20069;-68
2021/12/19 02:00:42;;;;;;;11.73;5.78;;;;;;;8.48;74.07;102331.72;5048007;28;20448;-68
2021/12/19 02:03:11;;;;;;;13.63;5.22;;;;;;;8.11;74.87;102312.28;5048562;28;20044;-67
2021/12/19 02:05:39;;;;;;;10.43;5.00;;;;;;;8.23;74.33;102301.63;5059084;28;20095;-67
2021/12/19 02:08:06;;;;;;;7.60;4.63;;;;;;;8.20;75.09;102302.53;5050553;28;20052;-67
2021/12/19 02:10:34;;;;;;;10.93;4.72;;;;;;;8.06;75.69;102295.81;5053564;28;20060;-68
2021/12/19 02:13:03;;;;;;;7.70;4.30;;;;;;;7.88;75.86;102291.75;5057345;28;20741;-68
2021/12/19 02:15:32;;;;;;;9.13;4.68;;;;;;;7.85;75.40;102291.81;5053412;28;20501;-68
2021/12/19 02:18:02;;;;;;;9.15;4.53;;;;;;;7.92;75.60;102276.91;5051023;28;20045;-68
2021/12/19 02:20:34;;;;;;;7.87;5.00;;;;;;;8.04;74.83;102276.69;5049777;28;20047;-68
2021/12/19 02:23:01;;;;;;;6.55;3.75;;;;;;;7.86;74.95;102267.44;5050677;28;20295;-68
2021/12/19 02:25:27;;;;;;;9.07;4.35;;;;;;;7.72;76.12;102279.84;5049643;28;20575;-68
2021/12/19 02:27:54;;;;;;;10.25;4.35;;;;;;;7.81;75.75;102279.69;5050857;28;20064;-68
2021/12/19 02:30:21;;;;;;;5.65;3.60;;;;;;;7.75;76.08;102267.59;5046314;28;20068;-68
2021/12/19 02:32:47;;;;;;;5.47;4.18;;;;;;;8.19;74.66;102284.28;5050212;28;20242;-68
2021/12/19 02:35:20;;;;;;;7.85;3.97;;;;;;;8.16;74.88;102285.22;5049965;28;20759;-68
2021/12/19 02:38:15;;;;;;;8.95;5.00;;;;;;;8.08;75.15;102283.59;5045240;28;20452;-68
2021/12/19 02:48:56;;;;;;;12.20;4.47;;;;;;;8.13;75.40;102259.09;5045409;28;20091;-68
2021/12/19 02:51:23;;;;;;;7.45;5.18;;;;;;;8.31;74.98;102250.97;5050045;28;20055;-68
2021/12/19 02:53:50;;;;;;;7.43;4.85;;;;;;;8.11;75.40;102246.97;5032542;28;20049;-68
2021/12/19 02:56:19;;;;;;;11.63;4.68;;;;;;;7.87;75.98;102250.84;5044560;28;20041;-68
2021/12/19 02:58:46;;;;;;;9.13;4.65;;;;;;;7.74;76.25;102247.59;5050065;28;20402;-68
2021/12/19 03:01:15;;;;;;;8.18;4.35;;;;;;;7.78;76.12;102228.38;5045606;28;20541;-68
2021/12/19 03:03:41;;;;;;;8.23;4.75;;;;;;;8.01;75.14;102232.34;5030152;28;20061;-68
2021/12/19 03:06:08;;;;;;;8.40;4.82;;;;;;;7.84;75.71;102220.44;5050355;28;20090;-68
2021/12/19 03:08:36;;;;;;;8.27;5.22;;;;;;;7.70;76.17;102211.97;5049237;28;20110;-68
2021/12/19 03:19:15;;;;;;;9.77;5.75;;;;;;;7.84;75.45;102209.97;5050036;28;20044;-68
2021/12/19 03:21:41;;;;;;;11.15;4.93;;;;;;;7.87;75.21;102216.06;5049846;28;20200;-68
2021/12/19 03:24:08;;;;;;;7.50;5.05;;;;;;;7.78;75.37;102228.38;5049588;28;20048;-68
2021/12/19 03:26:36;;;;;;;10.45;4.05;;;;;;;7.80;75.58;102228.34;5049012;28;20037;-68
2021/12/19 03:29:03;;;;;;;7.85;4.60;;;;;;;7.84;75.68;102228.25;5047036;28;20094;-68
2021/12/19 03:31:30;;;;;;;14.25;4.93;;;;;;;7.88;75.29;102210.78;5047176;28;20067;-68
2021/12/19 03:33:56;;;;;;;8.20;4.93;;;;;;;7.77;75.47;102217.94;5050140;28;20076;-68
2021/12/19 03:36:23;;;;;;;9.25;5.30;;;;;;;8.02;74.90;102228.84;5049575;28;20048;-68
2021/12/19 03:38:52;;;;;;;10.07;5.07;;;;;;;7.83;75.67;102229.13;5048824;28;20048;-68
2021/12/19 03:41:21;;;;;;;9.95;4.88;;;;;;;7.86;75.49;102237.84;5049718;28;20047;-68
2021/12/19 03:43:50;;;;;;;10.82;5.10;;;;;;;7.71;76.10;102234.59;5049816;28;20065;-68
2021/12/19 03:46:18;;;;;;;8.07;4.82;;;;;;;7.55;76.84;102222.66;5048221;28;20065;-68
2021/12/19 03:48:44;;;;;;;11.77;4.72;;;;;;;7.57;77.04;102218.28;5049237;28;20567;-68
2021/12/19 03:51:11;;;;;;;10.68;4.70;;;;;;;7.96;75.47;102202.81;5049844;28;20341;-68
2021/12/19 03:53:38;;;;;;;12.18;4.45;;;;;;;7.85;76.09;102200.41;5049762;28;20049;-68
2021/12/19 03:56:04;;;;;;;7.97;4.47;;;;;;;7.96;75.74;102195.84;5044987;28;20049;-68
2021/12/19 03:58:31;;;;;;;8.38;5.10;;;;;;;7.89;75.42;102207.31;5033843;28;20072;-68
2021/12/19 04:01:00;;;;;;;9.60;4.90;;;;;;;7.79;76.48;102209.22;5049088;28;20045;-68
2021/12/19 04:03:29;;;;;;;13.35;5.75;;;;;;;7.87;76.08;102213.44;5048330;28;20067;-68
2021/12/19 04:05:55;;;;;;;7.55;4.00;;;;;;;8.01;75.76;102212.31;5048332;28;20508;-68
2021/12/19 04:08:22;;;;;;;12.32;4.32;;;;;;;8.14;75.18;102208.59;5047670;28;20057;-68
2021/12/19 04:10:50;;;;;;;9.88;4.35;;;;;;;8.30;74.45;102202.22;5048947;28;20182;-68
2021/12/19 04:13:18;;;;;;;11.70;4.00;;;;;;;8.37;73.95;102202.97;5049334;28;20448;-68
2021/12/19 04:15:45;;;;;;;16.73;4.70;;;;;;;8.07;75.40;102199.13;5051279;28;20110;-68
2021/12/19 04:18:12;;;;;;;9.48;4.35;;;;;;;7.93;76.03;102202.88;5049400;28;20049;-68
2021/12/19 04:20:39;;;;;;;15.82;5.00;;;;;;;8.05;75.77;102185.25;5048360;28;20463;-68
2021/12/19 04:23:05;;;;;;;13.20;4.63;;;;;;;8.11;75.09;102184.28;5048979;28;20106;-68
2021/12/19 04:25:32;;;;;;;16.88;4.43;;;;;;;7.95;75.95;102180.19;5048599;28;20041;-68
2021/12/19 04:27:58;;;;;;;9.57;4.05;;;;;;;7.78;76.88;102162.22;5048963;28;20493;-68
2021/12/19 04:30:26;;;;;;;6.45;4.05;;;;;;;7.87;76.43;102167.28;5048560;28;20041;-68
2021/12/19 04:33:00;;;;;;;8.90;4.03;;;;;;;7.99;75.81;102174.91;5049128;28;20103;-68
2021/12/19 04:35:31;;;;;;;10.00;4.35;;;;;;;8.11;75.46;102155.53;5048825;28;20041;-68
2021/12/19 04:38:30;;;;;;;12.18;4.10;;;;;;;8.05;75.53;102150.44;5047600;28;20068;-68
2021/12/19 04:41:09;;;;;;;15.35;4.80;;;;;;;7.87;76.52;102145.56;5047905;28;20064;-68
2021/12/19 04:52:29;;;;;;;9.77;4.78;;;;;;;7.96;76.14;102148.84;5048213;28;20060;-68
2021/12/19 04:55:15;;;;;;;10.32;3.70;;;;;;;8.21;75.18;102137.03;5039851;28;20045;-68
2021/12/19 04:57:47;;;;;;;12.85;4.93;;;;;;;8.12;75.85;102144.19;5048164;28;20116;-68
2021/12/19 05:00:18;;;;;;;18.35;6.00;;;;;;;8.03;76.04;102146.97;5048037;28;20504;-68
2021/12/19 05:02:52;;;;;;;19.63;5.55;;;;;;;8.07;76.00;102140.81;5040503;28;20043;-67
2021/12/19 05:16:19;;;;;;;12.20;5.65;;;;;;;8.10;75.95;102136.38;5047340;28;20242;-68
2021/12/19 05:18:48;;;;;;;10.68;5.30;;;;;;;8.08;75.87;102129.47;5047412;28;20049;-68
2021/12/19 05:21:17;;;;;;;7.90;4.97;;;;;;;8.01;76.12;102138.31;5047943;28;20056;-68
2021/12/19 05:24:16;;;;;;;11.63;5.32;;;;;;;8.23;75.28;102137.88;5048508;28;20056;-68
2021/12/19 05:26:43;;;;;;;16.35;5.45;;;;;;;8.08;75.81;102125.09;5047978;28;20052;-68
2021/12/19 05:29:10;;;;;;;11.32;5.63;;;;;;;8.19;75.38;102133.59;5044768;28;20037;-68
2021/12/19 05:31:37;;;;;;;14.23;5.85;;;;;;;8.20;75.19;102134.47;5047707;28;20474;-68
2021/12/19 05:34:03;;;;;;;9.30;5.57;;;;;;;8.34;74.47;102137.69;5048001;28;20106;-68
2021/12/19 05:47:28;;;;;;;14.80;5.47;;;;;;;7.98;75.80;102143.59;5047344;28;20055;-68
2021/12/19 05:49:54;;;;;;;14.80;4.80;;;;;;;8.11;75.00;102152.91;5048277;28;20122;-68
2021/12/19 05:52:20;;;;;;;8.30;4.97;;;;;;;8.32;74.60;102152.53;5047609;28;20060;-68
2021/12/19 05:54:48;;;;;;;10.10;5.07;;;;;;;8.39;74.40;102161.13;5049732;28;20101;-68
2021/12/19 05:57:15;;;;;;;14.68;6.00;;;;;;;8.11;75.28;102158.16;5051400;28;20072;-68
2021/12/19 05:59:41;;;;;;;17.80;6.05;;;;;;;8.06;75.54;102146.91;5049625;28;20048;-68
2021/12/19 06:02:07;;;;;;;11.00;5.25;;;;;;;8.22;75.20;102164.88;5051092;28;20125;-68
2021/12/19 06:04:34;;;;;;;14.70;5.60;;;;;;;8.42;74.16;102148.00;5050821;28;20499;-68
2021/12/19 06:07:00;;;;;;;21.65;5.57;;;;;;;8.08;75.49;102150.38;5050532;28;20041;-68
2021/12/19 06:09:27;;;;;;;13.23;5.80;;;;;;;8.10;75.81;102141.59;5059532;28;20095;-68
2021/12/19 06:11:55;;;;;;;14.57;5.07;;;;;;;8.48;74.45;102129.56;5070734;28;20102;-68
2021/12/19 06:14:22;;;;;;;16.60;5.53;;;;;;;8.30;74.33;102133.41;5058903;28;20064;-68
2021/12/19 06:16:49;;;;;;;11.75;4.78;;;;;;;8.10;75.26;102127.69;5049901;28;20056;-68
2021/12/19 06:19:15;;;;;;;15.23;5.18;;;;;;;7.89;76.41;102125.47;5050456;28;20064;-68
2021/12/19 06:21:42;;;;;;;18.48;5.68;;;;;;;8.19;75.36;102130.13;5051360;28;20095;-68
2021/12/19 06:24:08;;;;;;;18.15;5.03;;;;;;;8.26;75.10;102132.59;5050939;28;20064;-68
2021/12/19 06:26:35;;;;;;;21.00;5.75;;;;;;;8.27;75.28;102121.25;5050622;28;20523;-68
2021/12/19 06:29:03;;;;;;;20.75;5.63;;;;;;;8.06;75.75;102115.56;5047773;28;20052;-68
2021/12/19 06:31:30;;;;;;;14.60;5.15;;;;;;;8.06;76.05;102110.34;5047996;28;20069;-68
2021/12/19 06:33:56;;;;;;;23.73;5.82;;;;;;;8.04;75.97;102113.00;5039345;28;20131;-68
2021/12/19 06:36:23;;;;;;;13.90;5.47;;;;;;;8.17;75.90;102103.16;5048569;28;20121;-68
2021/12/19 06:38:49;;;;;;;11.82;5.63;;;;;;;8.35;75.44;102097.59;5049065;28;20049;-67
2021/12/19 06:41:16;;;;;;;12.20;4.63;;;;;;;8.19;76.06;102085.72;5050110;28;20069;-67
2021/12/19 06:43:42;;;;;;;12.48;5.18;;;;;;;8.22;75.58;102101.31;5053210;28;20041;-68
2021/12/19 06:46:10;;;;;;;9.52;4.60;;;;;;;8.10;76.39;102091.09;5050702;28;20069;-68
2021/12/19 06:48:37;;;;;;;12.65;3.90;;;;;;;8.08;76.25;102100.72;5049225;28;20126;-68
2021/12/19 06:51:03;;;;;;;11.68;3.72;;;;;;;8.15;76.39;102097.09;5049166;28;20048;-68
2021/12/19 06:53:30;;;;;;;14.43;4.63;;;;;;;8.15;76.03;102099.72;5049813;28;20099;-69
2021/12/19 06:55:58;;;;;;;7.10;4.40;;;;;;;8.09;76.35;102102.47;5050365;28;20053;-68
2021/12/19 06:58:24;;;;;;;11.82;4.03;;;;;;;7.98;76.58;102110.47;5049909;28;20512;-68
2021/12/19 07:00:51;;;;;;;8.45;3.65;;;;;;;8.27;75.43;102099.47;5049012;28;20077;-68
2021/12/19 07:03:23;;;;;;;11.95;3.22;;;;;;;8.32;75.15;102098.50;5049495;28;20448;-68
2021/12/19 07:05:49;;;;;;;8.80;3.03;;;;;;;8.10;76.23;102076.28;5049134;28;20489;-68
2021/12/19 07:08:16;;;;;;;9.55;3.38;;;;;;;8.32;75.92;102081.97;5048027;28;20103;-68
2021/12/19 07:10:42;;;;;;;9.30;3.42;;;;;;;8.20;76.18;102087.44;5050074;28;20045;-68
2021/12/19 07:13:08;;;;;;;10.77;4.18;;;;;;;8.51;74.78;102092.88;5049817;28;20072;-68
2021/12/19 07:15:35;;;;;;;15.07;3.97;;;;;;;8.71;74.28;102081.13;5052790;28;20076;-68
2021/12/19 07:18:04;;;;;;;13.88;3.88;;;;;;;8.64;74.26;102089.13;5048764;28;20131;-68
2021/12/19 07:20:32;;;;;;;7.30;3.38;;;;;;;8.30;75.30;102086.38;5048915;28;20048;-68
2021/12/19 07:22:58;;;;;;;9.65;4.10;;;;;;;8.66;73.79;102082.97;5049499;28;20498;-68
2021/12/19 07:25:25;;;;;;;9.00;4.25;;;;;;;8.51;74.37;102087.66;5049443;28;20037;-68
2021/12/19 07:27:52;;;;;;;16.45;4.80;;;;;;;8.28;75.07;102085.50;5049675;28;20079;-68
2021/12/19 07:30:18;;;;;;;9.25;3.50;;;;;;;8.31;74.92;102067.19;5048918;28;20060;-68
2021/12/19 07:32:45;;;;;;;10.90;3.75;;;;;;;8.56;74.51;102055.31;5050067;28;20052;-68
2021/12/19 07:35:12;;;;;;;11.48;4.00;;;;;;;8.44;74.57;102058.19;5049426;28;20110;-67
2021/12/19 07:37:41;;;;;;;8.88;3.55;;;;;;;8.59;74.04;102052.63;5048165;28;20041;-68
2021/12/19 07:40:14;;;;;;;14.15;3.70;;;;;;;8.42;74.43;102066.97;5049472;28;20044;-68
2021/12/19 07:42:41;;;;;;;9.32;3.25;;;;;;;8.51;74.34;102049.31;5049074;28;20048;-68
2021/12/19 07:45:08;;;;;;;10.48;3.05;;;;;;;8.14;75.77;102061.41;5052124;28;20064;-68
2021/12/19 07:47:35;;;;;;;11.50;3.22;;;;;;;8.38;75.38;102065.31;5048592;28;20048;-66
2021/12/19 07:50:01;;;;;;;9.90;4.00;;;;;;;8.33;75.18;102068.00;5044752;28;20072;-66
2021/12/19 07:52:27;;;;;;;8.55;3.05;;;;;;;8.25;76.04;102056.81;5048883;28;20095;-66
2021/12/19 07:54:55;;;;;;;21.77;4.20;;;;;;;8.35;75.65;102063.63;5049055;28;20076;-66
2021/12/19 07:57:21;;;;;;;8.18;3.50;;;;;;;8.33;75.89;102057.56;5049366;28;20263;-66
2021/12/19 07:59:47;;;;;;;8.32;3.22;;;;;;;8.62;74.91;102049.94;5046647;28;20582;-67
2021/12/19 08:02:14;;;;;;;6.13;3.45;;;;;;;8.88;73.69;102043.22;5048872;28;20064;-68
2021/12/19 08:04:40;;;;;;;7.97;3.58;;;;;;;8.86;74.11;102042.41;5048837;28;20041;-67
2021/12/19 08:07:08;;;;;;;11.45;4.07;;;;;;;8.76;74.17;102047.84;5048967;28;20195;-67
2021/12/19 08:09:40;;;;;;;10.95;3.45;;;;;;;8.68;74.80;102044.53;5048242;28;20089;-67
2021/12/19 08:12:08;;;;;;;11.95;3.47;;;;;;;8.82;74.50;102041.63;5048890;28;20076;-67
2021/12/19 08:14:34;;;;;;;13.00;4.95;;;;;;;8.90;74.06;102039.69;5051096;28;20051;-66
2021/12/19 08:17:01;;;;;;;12.95;3.53;;;;;;;8.69;74.49;102040.19;5048399;28;20631;-66
2021/12/19 08:19:27;;;;;;;11.05;4.07;;;;;;;8.63;74.05;102042.94;5048270;28;20438;-66
2021/12/19 08:21:53;;;;;;;7.53;3.22;;;;;;;8.18;75.76;102050.00;5048395;28;20567;-66
2021/12/19 08:24:20;;;;;;;7.35;2.85;;;;;;;8.26;75.14;102040.25;5048214;28;20074;-66
2021/12/19 08:26:47;;;;;;;11.05;3.25;;;;;;;8.40;74.90;102033.00;5048144;28;20056;-66
2021/12/19 08:29:15;;;;;;;8.10;3.28;;;;;;;8.56;74.79;102038.75;5046875;28;20501;-67
2021/12/19 08:31:41;;;;;;;11.52;3.47;;;;;;;8.16;75.58;102030.91;5032160;28;20044;-68
2021/12/19 08:34:08;;;;;;;7.25;3.60;;;;;;;8.46;75.31;102027.63;5043291;28;20464;-69
2021/12/19 08:36:34;;;;;;;8.60;2.60;;;;;;;8.30;75.04;102018.44;5047454;28;20122;-69
2021/12/19 08:39:01;;;;;;;8.68;2.88;;;;;;;8.47;74.27;102016.28;5045282;28;20138;-68
2021/12/19 08:41:27;;;;;;;9.30;2.70;;;;;;;8.31;74.63;102012.31;5048144;28;20053;-68
2021/12/19 08:43:54;;;;;;;6.78;2.80;;;;;;;8.39;74.67;102014.78;5047384;28;20521;-67
2021/12/19 08:46:22;;;;;;;10.20;2.55;;;;;;;8.38;73.72;102008.69;5047950;28;20068;-68
2021/12/19 08:48:49;;;;;;;14.95;2.45;;;;;;;8.38;73.77;102002.59;5047670;28;20099;-68
2021/12/19 08:51:15;;;;;;;13.38;3.17;;;;;;;8.53;73.51;102012.69;5048754;28;20048;-68
2021/12/19 08:53:42;;;;;;;8.88;2.58;;;;;;;8.49;72.82;102019.75;5048580;28;20095;-68
2021/12/19 08:56:08;;;;;;;8.68;3.17;;;;;;;8.35;73.63;102011.38;5047530;28;20040;-68
2021/12/19 08:58:34;;;;;;;10.18;2.70;;;;;;;8.43;73.80;102005.94;5047571;28;20099;-68
2021/12/19 09:01:02;;;;;;;7.90;2.72;;;;;;;8.51;73.39;102001.41;5047533;28;20045;-68
2021/12/19 09:03:31;;;;;;;5.03;2.67;;;;;;;8.39;74.20;101999.91;5047358;28;20382;-68
2021/12/19 09:05:58;;;;;;;11.48;3.40;;;;;;;8.68;73.38;102000.09;5047929;28;20099;-68
2021/12/19 09:08:25;;;;;;;14.52;3.50;;;;;;;8.79;73.33;101995.47;5047485;28;20253;-68
2021/12/19 09:10:52;;;;;;;11.82;4.15;;;;;;;8.52;73.91;101990.06;5047633;28;20123;-67
2021/12/19 09:13:19;;;;;;;12.68;3.60;;;;;;;8.78;72.92;101993.78;5048242;28;20171;-67
2021/12/19 09:15:45;;;;;;;5.32;2.28;;;;;;;8.43;73.54;101988.50;5047999;28;20064;-67
2021/12/19 09:18:11;;;;;;;4.75;2.17;;;;;;;8.39;73.66;101979.00;5047205;28;20095;-68
2021/12/19 09:20:39;;;;;;;3.22;1.58;;;;;;;8.17;74.88;101988.19;5047019;28;20081;-67
2021/12/19 09:23:06;;;;;;;10.60;2.33;;;;;;;8.26;74.84;101983.63;5047641;28;20073;-67
2021/12/19 09:25:32;;;;;;;8.05;1.88;;;;;;;8.59;74.02;101987.25;5046545;28;20072;-68
2021/12/19 09:27:58;;;;;;;2.78;1.42;;;;;;;8.61;73.60;101976.78;5047426;28;20045;-68
2021/12/19 09:30:26;;;;;;;1.00;1.00;;;;;;;8.54;73.68;101967.34;5051934;28;20052;-68
2021/12/19 09:32:52;;;;;;;2.47;1.38;;;;;;;8.16;74.41;101981.28;5050639;28;20055;-66
2021/12/19 09:35:19;;;;;;;12.82;1.80;;;;;;;8.50;73.50;101981.41;5051408;28;20077;-65
2021/12/19 09:37:47;;;;;;;4.80;1.52;;;;;;;8.58;73.35;101976.81;5050813;28;20447;-66
2021/12/19 09:40:19;;;;;;;2.15;0.98;;;;;;;8.55;73.28;101975.16;5051036;28;20045;-67
2021/12/19 09:42:49;;;;;;;2.63;1.05;;;;;;;8.46;74.60;101967.50;5051494;28;20045;-68
2021/12/19 09:45:16;;;;;;;1.92;0.90;;;;;;;8.45;75.50;101962.34;5039619;28;20045;-68
2021/12/19 09:47:43;;;;;;;0.88;0.88;;;;;;;8.26;75.46;101954.91;5051672;28;20505;-68
2021/12/19 09:50:10;;;;;;;6.00;1.50;;;;;;;8.21;75.76;101964.59;5051086;28;20064;-68
2021/12/19 09:52:37;;;;;;;4.13;1.60;;;;;;;8.48;75.06;101960.50;5050625;28;20041;-68
2021/12/19 09:55:06;;;;;;;6.82;1.50;;;;;;;8.40;75.64;101956.34;5050391;28;20479;-68
2021/12/19 09:57:32;;;;;;;4.60;1.50;;;;;;;8.39;75.31;101950.25;5049209;28;20041;-68
2021/12/19 09:59:59;;;;;;;3.40;1.50;;;;;;;8.39;75.36;101954.66;5046981;28;20456;-68
2021/12/19 10:02:25;;;;;;;5.00;1.85;;;;;;;8.41;74.69;101945.88;5050236;28;20037;-67
2021/12/19 10:04:51;;;;;;;3.75;1.80;;;;;;;8.28;75.63;101942.66;5049743;28;20421;-67
2021/12/19 10:07:20;;;;;;;1.90;1.80;;;;;;;8.30;76.48;101940.91;5050330;28;20053;-67
2021/12/19 10:09:57;;;;;;;7.00;2.40;;;;;;;8.20;76.52;101946.34;5050955;28;20056;-67
2021/12/19 10:12:48;;;;;;;2.90;1.25;;;;;;;8.49;76.09;101943.09;5050570;28;20049;-67
2021/12/19 10:15:17;;;;;;;7.60;2.90;;;;;;;8.77;74.75;101946.72;5042580;28;20409;-66
2021/12/19 10:17:43;;;;;;;6.40;1.75;;;;;;;8.67;74.99;101922.56;5042413;28;20697;-66
2021/12/19 10:20:12;;;;;;;7.68;2.28;;;;;;;8.22;76.89;101923.63;5050601;28;20057;-65
2021/12/19 10:22:41;;;;;;;2.03;1.33;;;;;;;8.23;77.46;101915.78;5049420;28;20048;-67
2021/12/19 10:25:13;;;;;;;3.45;1.70;;;;;;;8.51;76.38;101904.69;5048355;28;20172;-67
2021/12/19 10:27:43;;;;;;;5.47;2.17;;;;;;;8.39;76.47;101905.81;5049190;28;20057;-67
2021/12/19 10:30:13;;;;;;;3.45;1.98;;;;;;;8.71;76.11;101913.75;5049818;28;20207;-67
2021/12/19 10:32:51;;;;;;;11.60;3.97;;;;;;;8.60;75.84;101902.72;5049412;28;20120;-66
2021/12/19 10:35:20;;;;;;;8.15;2.92;;;;;;;8.57;76.18;101913.22;5047224;28;20117;-68
2021/12/19 10:37:46;;;;;;;6.72;1.58;;;;;;;8.57;75.96;101901.94;5049914;28;20048;-67
2021/12/19 10:40:13;;;;;;;13.20;4.60;;;;;;;8.82;75.23;101902.16;5049803;28;20064;-67
2021/12/19 10:42:53;;;;;;;2.88;1.92;;;;;;;8.47;75.00;101884.75;5042456;28;20409;-67
2021/12/19 10:45:32;;;;;;;3.00;1.42;;;;;;;8.54;74.76;101887.16;5049292;28;20041;-67
2021/12/19 10:48:17;;;;;;;4.50;1.70;;;;;;;8.68;74.88;101887.66;5049838;28;20045;-67
2021/12/19 10:50:46;;;;;;;8.18;3.10;;;;;;;8.74;74.35;101887.53;5049893;28;20064;-67
2021/12/19 10:53:13;;;;;;;3.90;1.85;;;;;;;8.36;76.60;101889.38;5046061;28;20090;-67
2021/12/19 10:55:41;;;;;;;8.02;5.13;;;;;;;8.28;77.73;101879.06;5049859;28;20098;-67
2021/12/19 10:58:21;;;;;;;2.45;1.45;;;;;;;8.41;77.98;101898.84;5046226;28;20048;-68
2021/12/19 11:01:12;;;;;;;11.27;4.32;;;;;;;8.85;76.79;101887.25;5049406;28;20052;-68
2021/12/19 11:03:51;;;;;;;4.70;2.80;;;;;;;8.56;78.62;101887.13;5046813;28;20055;-68
2021/12/19 11:06:28;;;;;;;5.78;3.17;;;;;;;8.51;79.51;101876.78;5050170;28;20103;-67
2021/12/19 11:08:55;;;;;;;13.75;5.78;;;;;;;8.51;80.40;101881.16;5047411;28;20083;-67
2021/12/19 11:11:41;;;;;;;6.63;3.28;;;;;;;8.42;81.66;101863.97;5050048;28;20048;-68
2021/12/19 11:14:10;;;;;;;12.13;5.53;;;;;;;8.43;81.13;101851.72;5044990;28;21125;-69
2021/12/19 11:16:37;;;;;;;12.88;5.72;;;;;;;8.54;80.73;101847.09;5049170;28;20049;-69
2021/12/19 11:19:04;;;;;;;24.23;8.18;;;;;;;8.30;81.04;101840.75;5049549;28;20045;-69
2021/12/19 11:21:34;;;;;;;3.50;1.95;;;;;;;8.42;80.44;101831.75;5049339;28;20089;-69
2021/12/19 11:24:00;;;;;;;15.13;4.85;;;;;;;8.10;80.63;101830.72;5049575;28;20049;-69
2021/12/19 11:26:27;;;;;;;19.25;5.28;;;;;;;7.73;81.47;101827.25;5049570;28;20466;-68
2021/12/19 11:28:56;;;;;;;20.85;9.18;;;;;;;8.19;80.16;101824.44;5048986;28;20045;-69
2021/12/19 11:31:26;;;;;;;18.40;8.07;;;;;;;8.24;80.05;101827.81;5049568;28;20159;-69
2021/12/19 11:34:09;;;;;;;5.13;1.17;;;;;;;8.18;79.39;101807.03;5049703;28;20132;-69
2021/12/19 11:36:39;;;;;;;1.15;1.05;;;;;;;8.15;79.33;101807.13;5048072;28;20636;-69
2021/12/19 11:39:07;;;;;;;1.80;1.70;;;;;;;8.11;79.28;101806.34;5048512;28;20092;-69
2021/12/19 11:41:34;;;;;;;5.68;1.10;;;;;;;8.29;79.15;101792.84;5049300;28;20068;-69
2021/12/19 11:44:02;;;;;;;2.72;1.10;;;;;;;8.30;79.66;101796.31;5049683;28;20047;-70
2021/12/19 11:46:50;;;;;;;3.20;1.05;;;;;;;8.13;80.53;101793.25;5045636;28;20421;-69
2021/12/19 11:49:21;;;;;;;4.05;1.02;;;;;;;8.30;79.68;101788.47;5047791;28;20044;-69
2021/12/19 11:51:48;;;;;;;;;;;;;;;8.29;79.65;101784.13;5049067;28;20114;-69
2021/12/19 11:54:17;;;;;;;2.20;1.17;;;;;;;8.28;79.93;101790.22;5045013;28;19951;-69
2021/12/19 11:57:06;;;;;;;4.15;1.10;;;;;;;8.34;80.15;101807.56;5048982;28;20695;-69
2021/12/19 11:59:32;;;;;;;2.35;1.45;;;;;;;8.15;79.99;101802.75;5049050;28;20041;-69
2021/12/19 12:02:21;;;;;;;2.97;1.35;;;;;;;8.41;79.44;101790.81;5049111;28;20076;-69
2021/12/19 12:05:20;;;;;;;4.78;1.42;;;;;;;8.31;79.77;101798.03;5042156;28;20049;-69
2021/12/19 12:08:14;;;;;;;3.33;1.38;;;;;;;8.41;79.35;101791.66;5049611;28;20468;-70
2021/12/19 12:11:18;;;;;;;2.50;1.67;;;;;;;8.40;79.49;101784.72;5046073;28;20037;-72
2021/12/19 12:13:44;;;;;;;6.60;1.10;;;;;;;8.20;80.05;101777.34;5044036;28;20040;-70
2021/12/19 12:16:40;;;;;;;5.05;1.20;;;;;;;8.16;80.76;101796.66;5048415;28;20047;-70
2021/12/19 12:19:08;;;;;;;5.38;1.35;;;;;;;8.07;80.85;101796.84;5049449;28;20440;-70
2021/12/19 12:21:41;;;;;;;4.45;1.25;;;;;;;7.97;81.53;101787.53;5049418;28;20270;-70
2021/12/19 12:24:16;;;;;;;3.83;1.42;;;;;;;8.22;80.66;101772.09;5046779;28;20076;-70
2021/12/19 12:26:51;;;;;;;4.13;1.85;;;;;;;8.04;81.02;101783.88;5048553;28;20052;-70
2021/12/19 12:29:17;;;;;;;5.43;1.75;;;;;;;8.17;81.13;101779.19;5043415;28;20494;-70